sensor_id;sensor_type;location;lat;lon;timestamp;pressure;altitude;pressure_sealevel;temperature;humidity
70027;BME280;57506;50.092;15.804;2024-03-23T00:55:14;98418.00;;;9.45;100.00
70027;BME280;57506;50.092;15.804;2024-03-23T00:57:39;98413.88;;;9.50;100.00
70027;BME280;57506;50.092;15.804;2024-03-23T01:00:05;98409.53;;;9.48;100.00
70027;BME280;57506;50.092;15.804;2024-03-23T01:02:34;98399.81;;;9.54;100.00
70027;BME280;57506;50.092;15.804;2024-03-23T01:04:59;98386.75;;;9.51;100.00
70027;BME280;57506;50.092;15.804;2024-03-23T01:07:25;98383.66;;;9.54;100.00
70027;BME280;57506;50.092;15.804;2024-03-23T01:09:50;98378.06;;;9.49;100.00
70027;BME280;57506;50.092;15.804;2024-03-23T01:12:17;98387.19;;;9.55;100.00
70027;BME280;57506;50.092;15.804;2024-03-23T01:14:43;98398.56;;;9.63;100.00
70027;BME280;57506;50.092;15.804;2024-03-23T01:17:08;98394.00;;;9.64;100.00
70027;BME280;57506;50.092;15.804;2024-03-23T01:19:33;98382.41;;;9.70;100.00
70027;BME280;57506;50.092;15.804;2024-03-23T01:21:59;98389.41;;;9.91;100.00
70027;BME280;57506;50.092;15.804;2024-03-23T01:24:25;98383.25;;;9.90;100.00
70027;BME280;57506;50.092;15.804;2024-03-23T01:26:50;98325.31;;;9.55;100.00
70027;BME280;57506;50.092;15.804;2024-03-23T01:29:16;98364.59;;;9.82;100.00
70027;BME280;57506;50.092;15.804;2024-03-23T01:31:41;98380.31;;;9.92;100.00
70027;BME280;57506;50.092;15.804;2024-03-23T01:34:07;98364.38;;;9.97;100.00
70027;BME280;57506;50.092;15.804;2024-03-23T01:36:32;98343.47;;;9.99;100.00
70027;BME280;57506;50.092;15.804;2024-03-23T01:38:59;98332.69;;;9.99;100.00
70027;BME280;57506;50.092;15.804;2024-03-23T01:41:24;98348.22;;;10.03;100.00
70027;BME280;57506;50.092;15.804;2024-03-23T01:43:50;98357.13;;;9.97;100.00
70027;BME280;57506;50.092;15.804;2024-03-23T01:46:16;98371.63;;;9.96;100.00
70027;BME280;57506;50.092;15.804;2024-03-23T01:48:42;98358.19;;;9.90;100.00
70027;BME280;57506;50.092;15.804;2024-03-23T01:51:07;98347.41;;;9.83;100.00
70027;BME280;57506;50.092;15.804;2024-03-23T01:53:33;98362.94;;;9.88;100.00
70027;BME280;57506;50.092;15.804;2024-03-23T01:55:58;98337.31;;;9.72;100.00
70027;BME280;57506;50.092;15.804;2024-03-23T01:58:24;98355.50;;;9.76;100.00
70027;BME280;57506;50.092;15.804;2024-03-23T02:00:50;98353.44;;;9.72;100.00
70027;BME280;57506;50.092;15.804;2024-03-23T02:03:26;98344.53;;;9.65;100.00
70027;BME280;57506;50.092;15.804;2024-03-23T02:05:53;98334.41;;;9.67;100.00
70027;BME280;57506;50.092;15.804;2024-03-23T02:08:20;98334.81;;;9.70;100.00
70027;BME280;57506;50.092;15.804;2024-03-23T02:10:50;98311.66;;;9.56;100.00
70027;BME280;57506;50.092;15.804;2024-03-23T02:13:16;98322.41;;;9.63;100.00
70027;BME280;57506;50.092;15.804;2024-03-23T02:15:42;98290.16;;;9.50;100.00
70027;BME280;57506;50.092;15.804;2024-03-23T02:18:08;98310.81;;;9.69;100.00
70027;BME280;57506;50.092;15.804;2024-03-23T02:20:35;98300.69;;;9.58;100.00
70027;BME280;57506;50.092;15.804;2024-03-23T02:23:00;98301.94;;;9.55;100.00
70027;BME280;57506;50.092;15.804;2024-03-23T02:25:26;98309.19;;;9.55;100.00
70027;BME280;57506;50.092;15.804;2024-03-23T02:27:51;98310.00;;;9.48;100.00
70027;BME280;57506;50.092;15.804;2024-03-23T02:30:19;98284.78;;;9.36;100.00
70027;BME280;57506;50.092;15.804;2024-03-23T02:32:45;98287.25;;;9.31;100.00
70027;BME280;57506;50.092;15.804;2024-03-23T02:35:11;98254.19;;;9.24;100.00
70027;BME280;57506;50.092;15.804;2024-03-23T02:37:37;98268.25;;;9.33;100.00
70027;BME280;57506;50.092;15.804;2024-03-23T02:40:02;98268.03;;;9.34;100.00
70027;BME280;57506;50.092;15.804;2024-03-23T02:42:28;98242.19;;;9.20;100.00
70027;BME280;57506;50.092;15.804;2024-03-23T02:44:54;98269.88;;;9.27;100.00
70027;BME280;57506;50.092;15.804;2024-03-23T02:47:19;98250.47;;;9.19;100.00
70027;BME280;57506;50.092;15.804;2024-03-23T02:49:45;98256.69;;;9.19;100.00
70027;BME280;57506;50.092;15.804;2024-03-23T02:52:10;98257.47;;;9.26;100.00
70027;BME280;57506;50.092;15.804;2024-03-23T02:54:36;98266.59;;;9.32;100.00
70027;BME280;57506;50.092;15.804;2024-03-23T02:57:02;98246.53;;;9.21;100.00
70027;BME280;57506;50.092;15.804;2024-03-23T02:59:27;98247.78;;;9.19;100.00
70027;BME280;57506;50.092;15.804;2024-03-23T03:01:53;98250.88;;;9.16;100.00
70027;BME280;57506;50.092;15.804;2024-03-23T03:04:21;98250.06;;;9.15;100.00
70027;BME280;57506;50.092;15.804;2024-03-23T03:06:49;98234.16;;;9.07;100.00
70027;BME280;57506;50.092;15.804;2024-03-23T03:09:15;98252.09;;;9.26;100.00
70027;BME280;57506;50.092;15.804;2024-03-23T03:11:40;98229.78;;;9.19;100.00
70027;BME280;57506;50.092;15.804;2024-03-23T03:14:06;98242.63;;;9.24;100.00
70027;BME280;57506;50.092;15.804;2024-03-23T03:16:33;98248.19;;;9.29;100.00
70027;BME280;57506;50.092;15.804;2024-03-23T03:18:59;98233.72;;;9.23;100.00
70027;BME280;57506;50.092;15.804;2024-03-23T03:21:24;98248.38;;;9.27;100.00
70027;BME280;57506;50.092;15.804;2024-03-23T03:23:49;98236.81;;;9.13;100.00
70027;BME280;57506;50.092;15.804;2024-03-23T03:26:18;98210.38;;;8.91;100.00
70027;BME280;57506;50.092;15.804;2024-03-23T03:28:43;98244.28;;;8.98;100.00
70027;BME280;57506;50.092;15.804;2024-03-23T03:31:17;98243.88;;;8.88;100.00
70027;BME280;57506;50.092;15.804;2024-03-23T03:33:43;98234.56;;;8.84;100.00
70027;BME280;57506;50.092;15.804;2024-03-23T03:36:10;98233.09;;;8.82;100.00
70027;BME280;57506;50.092;15.804;2024-03-23T03:38:35;98223.41;;;8.74;100.00
70027;BME280;57506;50.092;15.804;2024-03-23T03:41:02;98211.00;;;8.60;100.00
70027;BME280;57506;50.092;15.804;2024-03-23T03:43:27;98217.81;;;8.69;100.00
70027;BME280;57506;50.092;15.804;2024-03-23T03:45:54;98211.81;;;8.67;100.00
70027;BME280;57506;50.092;15.804;2024-03-23T03:48:20;98207.47;;;8.66;100.00
70027;BME280;57506;50.092;15.804;2024-03-23T03:50:45;98207.69;;;8.64;100.00
70027;BME280;57506;50.092;15.804;2024-03-23T03:53:11;98203.53;;;8.62;100.00
70027;BME280;57506;50.092;15.804;2024-03-23T03:55:37;98217.59;;;8.70;100.00
70027;BME280;57506;50.092;15.804;2024-03-23T03:58:02;98200.03;;;8.61;100.00
70027;BME280;57506;50.092;15.804;2024-03-23T04:00:28;98203.78;;;8.60;100.00
70027;BME280;57506;50.092;15.804;2024-03-23T04:02:53;98194.03;;;8.53;100.00
70027;BME280;57506;50.092;15.804;2024-03-23T04:05:19;98179.78;;;8.46;100.00
70027;BME280;57506;50.092;15.804;2024-03-23T04:07:45;98196.94;;;8.51;100.00
70027;BME280;57506;50.092;15.804;2024-03-23T04:10:11;98195.88;;;8.46;100.00
70027;BME280;57506;50.092;15.804;2024-03-23T04:12:37;98195.88;;;8.39;100.00
70027;BME280;57506;50.092;15.804;2024-03-23T04:15:03;98176.41;;;8.17;100.00
70027;BME280;57506;50.092;15.804;2024-03-23T04:17:30;98185.47;;;8.10;100.00
70027;BME280;57506;50.092;15.804;2024-03-23T04:19:57;98166.63;;;7.96;100.00
70027;BME280;57506;50.092;15.804;2024-03-23T04:22:24;98178.00;;;7.92;100.00
70027;BME280;57506;50.092;15.804;2024-03-23T04:24:55;98173.84;;;7.89;100.00
70027;BME280;57506;50.092;15.804;2024-03-23T04:27:22;98151.88;;;7.66;100.00
70027;BME280;57506;50.092;15.804;2024-03-23T04:29:51;98168.00;;;7.72;100.00
70027;BME280;57506;50.092;15.804;2024-03-23T04:32:17;98161.00;;;7.71;100.00
70027;BME280;57506;50.092;15.804;2024-03-23T04:34:43;98159.94;;;7.66;100.00
70027;BME280;57506;50.092;15.804;2024-03-23T04:37:09;98123.75;;;7.42;100.00
70027;BME280;57506;50.092;15.804;2024-03-23T04:39:36;98155.94;;;7.49;100.00
70027;BME280;57506;50.092;15.804;2024-03-23T04:42:02;98159.25;;;7.51;100.00
70027;BME280;57506;50.092;15.804;2024-03-23T04:44:28;98164.59;;;7.44;100.00
70027;BME280;57506;50.092;15.804;2024-03-23T04:46:53;98143.84;;;7.18;100.00
70027;BME280;57506;50.092;15.804;2024-03-23T04:49:19;98160.09;;;7.10;100.00
70027;BME280;57506;50.092;15.804;2024-03-23T04:51:45;98163.91;;;6.94;100.00
70027;BME280;57506;50.092;15.804;2024-03-23T04:54:12;98156.81;;;6.80;100.00
70027;BME280;57506;50.092;15.804;2024-03-23T04:56:37;98110.03;;;6.48;100.00
70027;BME280;57506;50.092;15.804;2024-03-23T04:59:03;98127.84;;;6.62;100.00
70027;BME280;57506;50.092;15.804;2024-03-23T05:01:31;98120.66;;;6.70;100.00
70027;BME280;57506;50.092;15.804;2024-03-23T05:03:57;98124.78;;;6.65;100.00
70027;BME280;57506;50.092;15.804;2024-03-23T05:06:23;98118.81;;;6.70;100.00
70027;BME280;57506;50.092;15.804;2024-03-23T05:08:49;98101.91;;;6.63;100.00
70027;BME280;57506;50.092;15.804;2024-03-23T05:11:14;98127.19;;;6.88;100.00
70027;BME280;57506;50.092;15.804;2024-03-23T05:13:41;98116.47;;;6.88;100.00
70027;BME280;57506;50.092;15.804;2024-03-23T05:16:07;98116.09;;;6.91;100.00
70027;BME280;57506;50.092;15.804;2024-03-23T05:18:34;98095.81;;;6.82;100.00
70027;BME280;57506;50.092;15.804;2024-03-23T05:20:59;98112.63;;;6.97;100.00
70027;BME280;57506;50.092;15.804;2024-03-23T05:23:26;98101.09;;;6.97;100.00
70027;BME280;57506;50.092;15.804;2024-03-23T05:25:51;98108.31;;;7.03;100.00
70027;BME280;57506;50.092;15.804;2024-03-23T05:28:17;98089.34;;;6.98;100.00
70027;BME280;57506;50.092;15.804;2024-03-23T05:30:43;98101.78;;;7.12;100.00
70027;BME280;57506;50.092;15.804;2024-03-23T05:33:09;98098.09;;;7.20;100.00
70027;BME280;57506;50.092;15.804;2024-03-23T05:35:34;98108.03;;;7.32;100.00
70027;BME280;57506;50.092;15.804;2024-03-23T05:38:00;98109.53;;;7.42;100.00
70027;BME280;57506;50.092;15.804;2024-03-23T05:40:26;98087.69;;;7.45;100.00
70027;BME280;57506;50.092;15.804;2024-03-23T05:42:52;98084.44;;;7.56;100.00
70027;BME280;57506;50.092;15.804;2024-03-23T05:45:19;98071.25;;;7.61;100.00
70027;BME280;57506;50.092;15.804;2024-03-23T05:47:44;98087.16;;;7.82;100.00
70027;BME280;57506;50.092;15.804;2024-03-23T05:50:10;98074.59;;;7.89;100.00
70027;BME280;57506;50.092;15.804;2024-03-23T05:52:38;98067.19;;;8.04;100.00
70027;BME280;57506;50.092;15.804;2024-03-23T05:55:05;98068.66;;;8.20;100.00
70027;BME280;57506;50.092;15.804;2024-03-23T05:57:31;98058.75;;;8.34;100.00
70027;BME280;57506;50.092;15.804;2024-03-23T05:59:56;98052.13;;;8.56;100.00
70027;BME280;57506;50.092;15.804;2024-03-23T06:02:23;98061.78;;;8.77;100.00
70027;BME280;57506;50.092;15.804;2024-03-23T06:04:49;98043.81;;;8.77;100.00
70027;BME280;57506;50.092;15.804;2024-03-23T06:07:15;98069.38;;;9.06;100.00
70027;BME280;57506;50.092;15.804;2024-03-23T06:09:41;98057.28;;;9.29;100.00
70027;BME280;57506;50.092;15.804;2024-03-23T06:12:07;98068.72;;;9.62;100.00
70027;BME280;57506;50.092;15.804;2024-03-23T06:14:34;98056.06;;;9.69;100.00
70027;BME280;57506;50.092;15.804;2024-03-23T06:17:00;98058.13;;;9.74;100.00
70027;BME280;57506;50.092;15.804;2024-03-23T06:19:27;98057.66;;;9.77;100.00
70027;BME280;57506;50.092;15.804;2024-03-23T06:21:53;98044.78;;;9.86;100.00
70027;BME280;57506;50.092;15.804;2024-03-23T06:24:23;98051.84;;;10.11;100.00
70027;BME280;57506;50.092;15.804;2024-03-23T06:26:49;98049.13;;;10.43;100.00
70027;BME280;57506;50.092;15.804;2024-03-23T06:29:15;98046.34;;;10.74;100.00
70027;BME280;57506;50.092;15.804;2024-03-23T06:31:41;98033.31;;;10.90;100.00
70027;BME280;57506;50.092;15.804;2024-03-23T06:34:07;98040.75;;;11.12;100.00
70027;BME280;57506;50.092;15.804;2024-03-23T06:36:32;98031.00;;;11.11;99.78
70027;BME280;57506;50.092;15.804;2024-03-23T06:38:58;98019.25;;;11.24;98.09
70027;BME280;57506;50.092;15.804;2024-03-23T06:41:24;98028.72;;;11.45;97.03
70027;BME280;57506;50.092;15.804;2024-03-23T06:43:50;98025.53;;;11.66;97.33
70027;BME280;57506;50.092;15.804;2024-03-23T06:46:16;98030.09;;;11.84;95.61
70027;BME280;57506;50.092;15.804;2024-03-23T06:48:41;98015.34;;;11.98;93.65
70027;BME280;57506;50.092;15.804;2024-03-23T06:51:07;98006.88;;;12.06;93.68
70027;BME280;57506;50.092;15.804;2024-03-23T06:53:34;98004.47;;;12.16;90.68
70027;BME280;57506;50.092;15.804;2024-03-23T06:56:00;98007.50;;;12.20;91.00
70027;BME280;57506;50.092;15.804;2024-03-23T06:58:26;98000.44;;;12.07;90.98
70027;BME280;57506;50.092;15.804;2024-03-23T07:00:52;98019.47;;;12.24;92.02
70027;BME280;57506;50.092;15.804;2024-03-23T07:03:18;98007.03;;;12.23;91.87
70027;BME280;57506;50.092;15.804;2024-03-23T07:05:44;97997.50;;;12.20;93.02
70027;BME280;57506;50.092;15.804;2024-03-23T07:08:11;97988.34;;;12.21;92.83
70027;BME280;57506;50.092;15.804;2024-03-23T07:10:39;97976.84;;;12.14;92.44
70027;BME280;57506;50.092;15.804;2024-03-23T07:13:05;97971.91;;;12.11;92.80
70027;BME280;57506;50.092;15.804;2024-03-23T07:15:31;97966.28;;;12.01;94.67
70027;BME280;57506;50.092;15.804;2024-03-23T07:17:56;97967.66;;;11.92;94.93
70027;BME280;57506;50.092;15.804;2024-03-23T07:20:22;97968.97;;;12.01;96.15
70027;BME280;57506;50.092;15.804;2024-03-23T07:22:48;97967.06;;;12.02;96.00
70027;BME280;57506;50.092;15.804;2024-03-23T07:25:14;97969.69;;;12.20;97.03
70027;BME280;57506;50.092;15.804;2024-03-23T07:27:39;97965.94;;;12.33;95.75
70027;BME280;57506;50.092;15.804;2024-03-23T07:30:06;97960.06;;;12.36;95.61
70027;BME280;57506;50.092;15.804;2024-03-23T07:32:32;97959.00;;;12.48;97.59
70027;BME280;57506;50.092;15.804;2024-03-23T07:34:58;97956.53;;;12.58;95.98
70027;BME280;57506;50.092;15.804;2024-03-23T07:37:23;97950.75;;;12.55;94.82
70027;BME280;57506;50.092;15.804;2024-03-23T07:39:49;97943.97;;;12.64;95.25
70027;BME280;57506;50.092;15.804;2024-03-23T07:42:15;97928.22;;;12.61;95.37
70027;BME280;57506;50.092;15.804;2024-03-23T07:44:40;97937.00;;;12.68;95.60
70027;BME280;57506;50.092;15.804;2024-03-23T07:47:06;97919.03;;;12.50;96.51
70027;BME280;57506;50.092;15.804;2024-03-23T07:49:32;97913.91;;;12.49;96.54
70027;BME280;57506;50.092;15.804;2024-03-23T07:51:57;97925.53;;;12.49;99.49
70027;BME280;57506;50.092;15.804;2024-03-23T07:54:23;97933.50;;;12.44;100.00
70027;BME280;57506;50.092;15.804;2024-03-23T07:56:48;97912.00;;;12.38;100.00
70027;BME280;57506;50.092;15.804;2024-03-23T07:59:14;97919.63;;;12.52;98.49
70027;BME280;57506;50.092;15.804;2024-03-23T08:01:39;97906.34;;;12.51;97.13
70027;BME280;57506;50.092;15.804;2024-03-23T08:04:05;97894.59;;;12.57;99.55
70027;BME280;57506;50.092;15.804;2024-03-23T08:06:31;97901.50;;;12.76;99.44
70027;BME280;57506;50.092;15.804;2024-03-23T08:08:57;97895.09;;;12.94;97.44
70027;BME280;57506;50.092;15.804;2024-03-23T08:11:30;97887.75;;;13.06;96.84
70027;BME280;57506;50.092;15.804;2024-03-23T08:13:56;97883.00;;;13.25;95.72
70027;BME280;57506;50.092;15.804;2024-03-23T08:16:22;97873.66;;;13.32;96.67
70027;BME280;57506;50.092;15.804;2024-03-23T08:18:50;97863.75;;;13.38;96.88
70027;BME280;57506;50.092;15.804;2024-03-23T08:21:16;97842.59;;;13.35;98.66
70027;BME280;57506;50.092;15.804;2024-03-23T08:23:42;97846.84;;;13.48;99.52
70027;BME280;57506;50.092;15.804;2024-03-23T08:26:11;97839.16;;;13.56;100.00
70027;BME280;57506;50.092;15.804;2024-03-23T08:28:38;97817.03;;;13.59;97.93
70027;BME280;57506;50.092;15.804;2024-03-23T08:31:08;97811.50;;;13.54;99.98
70027;BME280;57506;50.092;15.804;2024-03-23T08:33:35;97779.63;;;13.40;99.35
70027;BME280;57506;50.092;15.804;2024-03-23T08:36:03;97791.88;;;13.81;99.02
70027;BME280;57506;50.092;15.804;2024-03-23T08:38:29;97775.00;;;14.12;96.17
70027;BME280;57506;50.092;15.804;2024-03-23T08:43:28;97800.19;;;14.78;90.58
70027;BME280;57506;50.092;15.804;2024-03-23T08:46:03;97795.66;;;15.11;88.23
70027;BME280;57506;50.092;15.804;2024-03-23T08:48:30;97779.94;;;15.13;83.89
70027;BME280;57506;50.092;15.804;2024-03-23T08:51:03;97786.94;;;15.35;81.47
70027;BME280;57506;50.092;15.804;2024-03-23T08:53:29;97771.16;;;15.32;80.72
70027;BME280;57506;50.092;15.804;2024-03-23T08:55:56;97772.50;;;15.62;78.05
70027;BME280;57506;50.092;15.804;2024-03-23T08:58:23;97769.88;;;15.72;77.76
70027;BME280;57506;50.092;15.804;2024-03-23T09:00:50;97767.28;;;15.97;76.35
70027;BME280;57506;50.092;15.804;2024-03-23T09:03:15;97745.16;;;16.21;76.18
70027;BME280;57506;50.092;15.804;2024-03-23T09:05:41;97717.78;;;16.48;69.70
70027;BME280;57506;50.092;15.804;2024-03-23T09:08:07;97728.13;;;16.56;67.07
70027;BME280;57506;50.092;15.804;2024-03-23T09:10:39;97727.81;;;16.47;64.41
70027;BME280;57506;50.092;15.804;2024-03-23T09:13:05;97728.91;;;16.46;64.78
70027;BME280;57506;50.092;15.804;2024-03-23T09:15:35;97695.97;;;16.32;64.96
70027;BME280;57506;50.092;15.804;2024-03-23T09:18:02;97648.59;;;16.08;64.82
70027;BME280;57506;50.092;15.804;2024-03-23T09:20:29;97706.91;;;16.48;64.70
70027;BME280;57506;50.092;15.804;2024-03-23T09:22:57;97697.19;;;16.72;64.05
70027;BME280;57506;50.092;15.804;2024-03-23T09:25:23;97681.97;;;16.86;64.57
70027;BME280;57506;50.092;15.804;2024-03-23T09:27:48;97687.13;;;16.93;61.93
70027;BME280;57506;50.092;15.804;2024-03-23T09:30:14;97690.41;;;17.10;62.69
70027;BME280;57506;50.092;15.804;2024-03-23T09:32:43;97698.84;;;17.13;61.90
70027;BME280;57506;50.092;15.804;2024-03-23T09:35:09;97686.06;;;17.04;64.07
70027;BME280;57506;50.092;15.804;2024-03-23T09:37:35;97680.63;;;16.99;62.92
70027;BME280;57506;50.092;15.804;2024-03-23T09:40:01;97694.75;;;16.86;61.35
70027;BME280;57506;50.092;15.804;2024-03-23T09:42:26;97695.03;;;16.94;61.49
70027;BME280;57506;50.092;15.804;2024-03-23T09:44:52;97683.06;;;17.16;61.69
70027;BME280;57506;50.092;15.804;2024-03-23T09:47:18;97670.50;;;17.40;60.85
70027;BME280;57506;50.092;15.804;2024-03-23T09:49:43;97644.63;;;17.47;60.11
70027;BME280;57506;50.092;15.804;2024-03-23T09:52:10;97651.41;;;17.55;59.49
70027;BME280;57506;50.092;15.804;2024-03-23T09:54:35;97642.41;;;17.55;57.64
70027;BME280;57506;50.092;15.804;2024-03-23T09:57:01;97654.38;;;17.84;57.21
70027;BME280;57506;50.092;15.804;2024-03-23T09:59:27;97668.16;;;18.13;57.52
70027;BME280;57506;50.092;15.804;2024-03-23T10:01:53;97641.47;;;18.05;58.18
70027;BME280;57506;50.092;15.804;2024-03-23T10:04:38;97647.47;;;18.51;55.65
70027;BME280;57506;50.092;15.804;2024-03-23T10:07:19;97619.63;;;18.59;55.98
70027;BME280;57506;50.092;15.804;2024-03-23T10:09:46;97650.16;;;18.66;56.25
70027;BME280;57506;50.092;15.804;2024-03-23T10:12:19;97643.06;;;18.65;53.98
70027;BME280;57506;50.092;15.804;2024-03-23T10:14:45;97648.72;;;18.30;54.98
70027;BME280;57506;50.092;15.804;2024-03-23T10:17:16;97652.88;;;18.12;54.72
70027;BME280;57506;50.092;15.804;2024-03-23T10:19:49;97631.69;;;17.94;54.28
70027;BME280;57506;50.092;15.804;2024-03-23T10:22:18;97624.72;;;17.57;55.58
70027;BME280;57506;50.092;15.804;2024-03-23T10:24:44;97587.22;;;17.29;56.90
70027;BME280;57506;50.092;15.804;2024-03-23T10:27:12;97626.09;;;17.49;56.83
70027;BME280;57506;50.092;15.804;2024-03-23T10:29:40;97595.69;;;17.17;57.53
70027;BME280;57506;50.092;15.804;2024-03-23T10:32:10;97602.00;;;16.87;56.17
70027;BME280;57506;50.092;15.804;2024-03-23T10:34:36;97627.81;;;16.95;58.83
70027;BME280;57506;50.092;15.804;2024-03-23T10:37:03;97692.28;;;16.79;60.83
70027;BME280;57506;50.092;15.804;2024-03-23T10:39:34;97675.47;;;15.52;65.81
70027;BME280;57506;50.092;15.804;2024-03-23T10:42:05;97701.97;;;14.22;79.67
70027;BME280;57506;50.092;15.804;2024-03-23T10:44:31;97731.16;;;13.38;93.54
70027;BME280;57506;50.092;15.804;2024-03-23T10:47:06;97759.31;;;12.92;100.00
70027;BME280;57506;50.092;15.804;2024-03-23T10:49:33;97766.19;;;12.54;100.00
70027;BME280;57506;50.092;15.804;2024-03-23T10:52:08;97750.38;;;12.35;100.00
70027;BME280;57506;50.092;15.804;2024-03-23T10:54:33;97777.47;;;12.51;100.00
70027;BME280;57506;50.092;15.804;2024-03-23T10:57:06;97764.88;;;12.29;100.00
70027;BME280;57506;50.092;15.804;2024-03-23T10:59:34;97783.03;;;12.45;100.00
70027;BME280;57506;50.092;15.804;2024-03-23T11:02:02;97760.06;;;12.31;100.00
70027;BME280;57506;50.092;15.804;2024-03-23T11:04:35;97812.47;;;12.58;97.83
70027;BME280;57506;50.092;15.804;2024-03-23T11:09:53;97829.84;;;12.62;97.85
70027;BME280;57506;50.092;15.804;2024-03-23T11:17:26;97842.16;;;12.18;100.00
70027;BME280;57506;50.092;15.804;2024-03-23T11:22:45;97841.72;;;12.09;98.51
70027;BME280;57506;50.092;15.804;2024-03-23T11:25:17;97850.97;;;12.13;93.95
70027;BME280;57506;50.092;15.804;2024-03-23T11:27:44;97839.00;;;12.09;92.90
70027;BME280;57506;50.092;15.804;2024-03-23T11:32:42;97832.41;;;12.29;91.61
70027;BME280;57506;50.092;15.804;2024-03-23T11:35:07;97838.94;;;12.44;89.27
70027;BME280;57506;50.092;15.804;2024-03-23T11:37:36;97818.75;;;12.47;91.66
70027;BME280;57506;50.092;15.804;2024-03-23T11:40:17;97804.78;;;12.38;90.66
70027;BME280;57506;50.092;15.804;2024-03-23T11:42:42;97832.22;;;12.58;88.19
70027;BME280;57506;50.092;15.804;2024-03-23T11:45:09;97835.44;;;12.72;89.82
70027;BME280;57506;50.092;15.804;2024-03-23T11:47:34;97807.06;;;12.58;86.45
70027;BME280;57506;50.092;15.804;2024-03-23T11:50:00;97832.84;;;12.77;87.14
70027;BME280;57506;50.092;15.804;2024-03-23T11:52:26;97814.41;;;12.74;84.30
70027;BME280;57506;50.092;15.804;2024-03-23T11:54:51;97799.53;;;12.60;83.92
70027;BME280;57506;50.092;15.804;2024-03-23T11:57:17;97815.16;;;12.58;82.60
70027;BME280;57506;50.092;15.804;2024-03-23T11:59:43;97827.16;;;12.50;82.48
70027;BME280;57506;50.092;15.804;2024-03-23T12:02:11;97834.81;;;12.53;84.73
70027;BME280;57506;50.092;15.804;2024-03-23T12:04:38;97836.09;;;12.51;81.78
70027;BME280;57506;50.092;15.804;2024-03-23T12:09:42;97842.91;;;12.65;81.30
70027;BME280;57506;50.092;15.804;2024-03-23T12:12:16;97816.09;;;12.64;81.12
70027;BME280;57506;50.092;15.804;2024-03-23T12:14:45;97840.03;;;13.00;77.75
70027;BME280;57506;50.092;15.804;2024-03-23T12:17:26;97795.31;;;13.09;76.74
70027;BME280;57506;50.092;15.804;2024-03-23T12:19:52;97816.69;;;13.39;77.00
70027;BME280;57506;50.092;15.804;2024-03-23T12:22:21;97816.19;;;13.59;74.50
70027;BME280;57506;50.092;15.804;2024-03-23T12:24:49;97818.00;;;13.53;74.51
70027;BME280;57506;50.092;15.804;2024-03-23T12:27:15;97806.00;;;13.49;73.53
70027;BME280;57506;50.092;15.804;2024-03-23T12:29:41;97823.25;;;13.77;72.71
70027;BME280;57506;50.092;15.804;2024-03-23T12:32:09;97804.13;;;13.66;74.41
70027;BME280;57506;50.092;15.804;2024-03-23T12:34:34;97810.34;;;13.67;72.71
70027;BME280;57506;50.092;15.804;2024-03-23T12:37:00;97832.56;;;13.86;71.68
70027;BME280;57506;50.092;15.804;2024-03-23T12:39:27;97833.41;;;13.86;72.13
70027;BME280;57506;50.092;15.804;2024-03-23T12:41:52;97831.72;;;14.02;71.70
70027;BME280;57506;50.092;15.804;2024-03-23T12:44:18;97844.22;;;14.03;69.68
70027;BME280;57506;50.092;15.804;2024-03-23T12:46:44;97843.47;;;14.08;71.45
70027;BME280;57506;50.092;15.804;2024-03-23T12:49:11;97835.50;;;14.01;68.82
70027;BME280;57506;50.092;15.804;2024-03-23T12:51:36;97838.47;;;13.83;69.76
70027;BME280;57506;50.092;15.804;2024-03-23T12:54:02;97823.31;;;13.82;71.40
70027;BME280;57506;50.092;15.804;2024-03-23T12:56:28;97829.75;;;13.97;69.17
70027;BME280;57506;50.092;15.804;2024-03-23T12:58:54;97818.28;;;14.07;69.03
70027;BME280;57506;50.092;15.804;2024-03-23T13:01:25;97828.22;;;14.01;69.02
70027;BME280;57506;50.092;15.804;2024-03-23T13:03:51;97824.91;;;13.99;68.57
70027;BME280;57506;50.092;15.804;2024-03-23T13:06:18;97831.38;;;13.77;68.54
70027;BME280;57506;50.092;15.804;2024-03-23T13:08:47;97839.50;;;13.43;69.85
70027;BME280;57506;50.092;15.804;2024-03-23T13:11:16;97868.88;;;12.54;79.45
70027;BME280;57506;50.092;15.804;2024-03-23T13:13:42;97915.47;;;10.97;93.26
70027;BME280;57506;50.092;15.804;2024-03-23T13:16:08;97895.19;;;10.03;100.00
70027;BME280;57506;50.092;15.804;2024-03-23T13:18:33;97895.97;;;9.85;100.00
70027;BME280;57506;50.092;15.804;2024-03-23T13:20:59;97873.38;;;9.68;100.00
70027;BME280;57506;50.092;15.804;2024-03-23T13:23:25;97851.16;;;9.54;100.00
70027;BME280;57506;50.092;15.804;2024-03-23T13:25:51;97928.25;;;9.85;100.00
70027;BME280;57506;50.092;15.804;2024-03-23T13:28:21;97879.00;;;9.35;100.00
70027;BME280;57506;50.092;15.804;2024-03-23T13:33:17;97925.56;;;9.29;100.00
70027;BME280;57506;50.092;15.804;2024-03-23T13:38:15;97991.72;;;9.36;100.00
70027;BME280;57506;50.092;15.804;2024-03-23T13:43:20;98003.25;;;9.43;100.00
70027;BME280;57506;50.092;15.804;2024-03-23T13:45:52;97925.72;;;9.02;100.00
70027;BME280;57506;50.092;15.804;2024-03-23T13:48:27;97958.44;;;9.31;100.00
70027;BME280;57506;50.092;15.804;2024-03-23T13:51:01;97982.81;;;9.67;98.10
70027;BME280;57506;50.092;15.804;2024-03-23T13:53:27;97959.13;;;9.58;97.42
70027;BME280;57506;50.092;15.804;2024-03-23T13:55:52;97965.28;;;9.27;95.85
70027;BME280;57506;50.092;15.804;2024-03-23T13:58:18;97977.69;;;8.83;99.93
70027;BME280;57506;50.092;15.804;2024-03-23T14:00:44;98025.25;;;8.76;100.00
70027;BME280;57506;50.092;15.804;2024-03-23T14:03:11;98056.63;;;8.89;100.00
70027;BME280;57506;50.092;15.804;2024-03-23T14:05:37;98055.78;;;8.88;100.00
70027;BME280;57506;50.092;15.804;2024-03-23T14:08:06;98039.72;;;8.75;96.00